Time;durP1;ratioP1;P1;durP2;ratioP2;P2;SDS_P1;SDS_P2;PMS_P1;PMS_P2;Temp;Humidity;BMP_temperature;BMP_pressure;BME280_temperature;BME280_humidity;BME280_pressure;Samples;Min_cycle;Max_cycle;Signal;HPM_P1;HPM_P2
2022/01/21 00:01:40;;;;;;;8.98;2.20;;;3.00;99.90;;;;;;5074589;28;20387;-80
2022/01/21 00:04:07;;;;;;;9.13;2.08;;;3.00;99.90;;;;;;5026209;28;20055;-80
2022/01/21 00:06:33;;;;;;;9.32;1.80;;;3.00;99.90;;;;;;5058683;28;20055;-81
2022/01/21 00:08:59;;;;;;;9.90;1.98;;;3.00;99.90;;;;;;5043036;28;20663;-79
2022/01/21 00:11:30;;;;;;;8.02;1.58;;;3.60;99.90;;;;;;5043068;28;20082;-81
2022/01/21 00:13:56;;;;;;;8.35;2.00;;;4.10;99.90;;;;;;5041826;28;20050;-80
2022/01/21 00:16:24;;;;;;;12.07;2.00;;;4.40;99.90;;;;;;5042130;28;20045;-79
2022/01/21 00:19:05;;;;;;;9.43;1.98;;;3.10;99.90;;;;;;5042492;28;20463;-79
2022/01/21 00:32:33;;;;;;;10.18;2.47;;;3.30;99.90;;;;;;5057179;28;20936;-80
2022/01/21 00:34:59;;;;;;;10.05;2.40;;;4.70;99.90;;;;;;5059075;28;20486;-79
2022/01/21 00:37:25;;;;;;;11.98;2.20;;;3.40;99.90;;;;;;5042055;28;20114;-80
2022/01/21 00:39:55;;;;;;;10.85;2.20;;;4.50;99.90;;;;;;5048961;28;20052;-80
2022/01/21 00:44:51;;;;;;;7.88;2.08;;;4.30;99.90;;;;;;5057335;28;20635;-80
2022/01/21 00:47:17;;;;;;;11.57;2.08;;;4.00;99.90;;;;;;5059559;28;20076;-80
2022/01/21 00:49:43;;;;;;;10.50;2.25;;;3.70;99.90;;;;;;5040828;28;20056;-80
2022/01/21 00:52:09;;;;;;;11.88;1.98;;;4.70;99.90;;;;;;5041433;28;20048;-79
2022/01/21 00:54:34;;;;;;;11.85;1.92;;;4.50;99.90;;;;;;5057387;28;20139;-80
2022/01/21 00:57:00;;;;;;;10.90;1.88;;;4.20;99.90;;;;;;5040806;28;20136;-79
2022/01/21 00:59:26;;;;;;;8.98;1.90;;;3.80;99.90;;;;;;5041784;28;20047;-80
2022/01/21 01:01:53;;;;;;;8.25;1.70;;;3.70;99.90;;;;;;5023971;28;20110;-80
2022/01/21 01:04:19;;;;;;;8.90;1.80;;;4.80;99.90;;;;;;5040227;28;20641;-80
2022/01/21 01:06:45;;;;;;;8.00;1.75;;;3.70;99.90;;;;;;5042372;28;20052;-80
2022/01/21 01:09:11;;;;;;;8.70;1.80;;;3.70;99.90;;;;;;5042054;28;20055;-80
2022/01/21 01:22:15;;;;;;;5.63;1.60;;;5.20;99.90;;;;;;5076555;28;20052;-79
2022/01/21 01:29:56;;;;;;;10.45;1.88;;;4.70;99.90;;;;;;5077280;28;20057;-80
2022/01/21 01:32:23;;;;;;;8.02;1.30;;;3.70;99.90;;;;;;5040657;28;20044;-80
2022/01/21 01:34:49;;;;;;;6.40;1.30;;;3.70;99.90;;;;;;5022537;28;20056;-80
2022/01/21 01:37:29;;;;;;;9.75;1.58;;;3.60;99.90;;;;;;5041520;28;20406;-80
2022/01/21 01:40:15;;;;;;;10.10;1.50;;;4.30;99.90;;;;;;5056387;28;20457;-80
2022/01/21 01:50:56;;;;;;;7.20;1.70;;;4.70;99.90;;;;;;5057875;28;20244;-80
2022/01/21 01:53:36;;;;;;;9.40;1.95;;;3.50;99.90;;;;;;5039803;28;20501;-79
2022/01/21 01:56:08;;;;;;;5.85;1.50;;;3.50;99.90;;;;;;5057956;28;20183;-80
2022/01/21 01:58:36;;;;;;;9.40;1.90;;;3.50;99.90;;;;;;5056777;28;20052;-81
2022/01/21 02:01:02;;;;;;;8.27;1.85;;;3.50;99.90;;;;;;5057602;28;20087;-80
2022/01/21 02:03:27;;;;;;;8.68;1.80;;;3.50;99.90;;;;;;5023762;28;20121;-79
2022/01/21 02:05:53;;;;;;;10.85;1.60;;;3.50;99.90;;;;;;5039853;28;20615;-79
2022/01/21 02:08:19;;;;;;;7.75;1.60;;;5.00;99.90;;;;;;5055984;28;20090;-79
2022/01/21 02:10:45;;;;;;;3.30;1.20;;;3.50;99.90;;;;;;5057092;28;20131;-79
2022/01/21 02:13:20;;;;;;;6.47;1.38;;;3.60;99.90;;;;;;5056772;28;20044;-80
2022/01/21 02:16:28;;;;;;;4.13;1.10;;;3.50;99.90;;;;;;5025561;28;20084;-80
2022/01/21 02:21:42;;;;;;;8.68;1.35;;;4.50;99.90;;;;;;5042121;28;20045;-81
2022/01/21 02:24:16;;;;;;;9.13;1.35;;;3.70;99.90;;;;;;5057523;28;20516;-80
2022/01/21 02:26:43;;;;;;;6.28;1.67;;;4.10;99.90;;;;;;5055523;28;20041;-80
2022/01/21 02:29:11;;;;;;;8.38;1.80;;;5.00;99.90;;;;;;5039518;28;20049;-79
2022/01/21 02:31:39;;;;;;;9.70;1.80;;;3.50;99.90;;;;;;5040311;28;20139;-80
2022/01/21 02:34:06;;;;;;;7.85;1.55;;;3.50;99.90;;;;;;5038681;28;20498;-80
2022/01/21 02:36:32;;;;;;;13.30;2.15;;;4.50;99.90;;;;;;5057576;28;20045;-80
2022/01/21 02:38:58;;;;;;;8.00;2.03;;;3.60;99.90;;;;;;5037805;28;20076;-79
2022/01/21 02:41:24;;;;;;;7.60;1.55;;;4.10;99.90;;;;;;5056269;28;20084;-80
2022/01/21 02:43:51;;;;;;;6.63;1.63;;;4.60;99.90;;;;;;5021377;28;20041;-80
2022/01/21 02:46:21;;;;;;;9.52;1.67;;;5.20;99.90;;;;;;5055900;28;20053;-80
2022/01/21 02:48:47;;;;;;;7.32;1.90;;;4.80;99.90;;;;;;5072683;28;20084;-81
2022/01/21 02:51:13;;;;;;;9.20;1.60;;;4.00;99.90;;;;;;5039553;28;20410;-80
2022/01/21 02:56:13;;;;;;;9.25;2.00;;;4.90;99.90;;;;;;5056789;28;20060;-80
2022/01/21 02:58:39;;;;;;;12.98;2.30;;;3.70;99.90;;;;;;5057253;28;20063;-81
2022/01/21 03:01:08;;;;;;;7.93;1.73;;;4.40;99.90;;;;;;5056603;28;20040;-80
2022/01/21 03:03:34;;;;;;;9.77;1.88;;;3.70;99.90;;;;;;5074635;28;20045;-80
2022/01/21 03:06:01;;;;;;;10.43;1.40;;;5.10;99.90;;;;;;5054986;28;20385;-80
2022/01/21 03:08:27;;;;;;;7.13;1.58;;;3.80;99.90;;;;;;5073379;28;20514;-80
2022/01/21 03:10:53;;;;;;;7.90;1.75;;;3.80;99.90;;;;;;5039035;28;20044;-80
2022/01/21 03:13:22;;;;;;;7.90;1.58;;;3.70;99.90;;;;;;5039808;28;20406;-80
2022/01/21 03:15:49;;;;;;;6.88;1.73;;;3.70;99.90;;;;;;5076863;28;20049;-80
2022/01/21 03:18:15;;;;;;;14.38;1.90;;;4.20;99.90;;;;;;5060178;28;20048;-80
2022/01/21 03:20:40;;;;;;;7.03;1.63;;;3.60;99.90;;;;;;5043486;28;20128;-81
2022/01/21 03:23:08;;;;;;;9.07;1.50;;;3.60;99.90;;;;;;5042932;28;20139;-80
2022/01/21 03:25:34;;;;;;;8.68;1.40;;;3.60;99.90;;;;;;5059816;28;20053;-79
2022/01/21 03:28:00;;;;;;;7.57;1.73;;;3.60;99.90;;;;;;5058765;28;20275;-80
2022/01/21 03:30:26;;;;;;;9.10;1.67;;;3.60;99.90;;;;;;5060110;28;20040;-80
2022/01/21 03:32:51;;;;;;;8.45;1.85;;;3.50;99.90;;;;;;5058132;28;20049;-80
2022/01/21 03:35:17;;;;;;;9.90;1.63;;;3.30;99.90;;;;;;5059948;28;20390;-80
2022/01/21 03:37:43;;;;;;;8.63;1.70;;;4.30;99.90;;;;;;5042772;28;20055;-79
2022/01/21 03:40:09;;;;;;;5.95;1.60;;;4.50;99.90;;;;;;5043241;28;20041;-80
2022/01/21 03:42:36;;;;;;;6.82;1.30;;;3.40;99.90;;;;;;5043533;28;20080;-79
2022/01/21 03:45:02;;;;;;;5.93;1.40;;;3.60;99.90;;;;;;5092764;28;20120;-79
2022/01/21 03:47:28;;;;;;;5.13;1.48;;;4.20;99.90;;;;;;5076347;28;20075;-79
2022/01/21 03:49:58;;;;;;;8.75;1.30;;;4.70;99.90;;;;;;5058995;28;20049;-79
2022/01/21 03:52:23;;;;;;;7.93;1.90;;;3.30;99.90;;;;;;5042077;28;20497;-80
2022/01/21 03:54:49;;;;;;;8.48;1.45;;;4.60;99.90;;;;;;5041903;28;20137;-80
2022/01/21 03:57:15;;;;;;;7.93;1.80;;;3.40;99.90;;;;;;5044095;28;20075;-80
2022/01/21 03:59:41;;;;;;;10.38;1.88;;;3.30;99.90;;;;;;5042296;28;20135;-81
2022/01/21 04:02:07;;;;;;;8.90;1.67;;;4.60;99.90;;;;;;5042623;28;20050;-80
2022/01/21 04:04:33;;;;;;;10.88;1.70;;;3.80;99.90;;;;;;5060761;28;20119;-80
2022/01/21 04:07:00;;;;;;;10.63;2.20;;;4.90;99.90;;;;;;5042071;28;20060;-80
2022/01/21 04:09:25;;;;;;;7.32;1.88;;;3.30;99.90;;;;;;5042278;28;20102;-80
2022/01/21 04:11:52;;;;;;;8.38;1.85;;;3.40;99.90;;;;;;5043411;28;20052;-80
2022/01/21 04:14:18;;;;;;;13.02;1.98;;;3.30;99.90;;;;;;5058192;28;20047;-79
2022/01/21 04:16:44;;;;;;;11.95;2.08;;;4.40;99.90;;;;;;5025589;28;20488;-80
2022/01/21 04:19:10;;;;;;;8.15;1.50;;;3.60;99.90;;;;;;5025795;28;20139;-80
2022/01/21 04:21:35;;;;;;;9.82;1.85;;;4.30;99.90;;;;;;5026250;28;20048;-80
2022/01/21 04:24:02;;;;;;;10.77;2.00;;;3.60;99.90;;;;;;5058540;28;20076;-79
2022/01/21 04:26:29;;;;;;;11.40;2.00;;;4.10;99.90;;;;;;5041955;28;20485;-80
2022/01/21 04:28:55;;;;;;;9.57;1.85;;;4.70;99.90;;;;;;5025242;28;20726;-80
2022/01/21 04:31:20;;;;;;;6.60;1.50;;;3.40;99.90;;;;;;5059786;28;20044;-79
2022/01/21 04:33:46;;;;;;;10.90;1.63;;;3.40;99.90;;;;;;5025486;28;20056;-80
2022/01/21 04:36:12;;;;;;;10.27;2.08;;;3.40;99.90;;;;;;5042873;28;20044;-80
2022/01/21 04:38:38;;;;;;;7.47;1.45;;;4.90;99.90;;;;;;5025359;28;20067;-80
2022/01/21 04:49:07;;;;;;;7.88;1.88;;;3.50;99.90;;;;;;5057245;28;20061;-79
2022/01/21 04:51:40;;;;;;;9.25;1.45;;;4.30;99.90;;;;;;5024732;28;20045;-79
2022/01/21 04:54:06;;;;;;;10.00;1.95;;;3.60;99.90;;;;;;5041416;28;20065;-80
2022/01/21 04:56:32;;;;;;;5.38;1.60;;;3.60;99.90;;;;;;5042252;28;20401;-80
2022/01/21 04:58:58;;;;;;;8.20;1.83;;;3.70;99.90;;;;;;5056655;28;20044;-80
2022/01/21 05:01:24;;;;;;;11.27;2.38;;;3.70;99.90;;;;;;5025749;28;20555;-80
2022/01/21 05:03:50;;;;;;;6.93;1.40;;;3.70;99.90;;;;;;5090927;28;20063;-80
2022/01/21 05:06:16;;;;;;;13.05;1.83;;;4.90;99.90;;;;;;5041641;28;20429;-80
2022/01/21 05:08:51;;;;;;;8.10;1.80;;;3.60;99.90;;;;;;5059853;28;20045;-80
2022/01/21 05:11:17;;;;;;;12.88;2.22;;;3.70;99.90;;;;;;5041505;28;20538;-80
2022/01/21 05:13:53;;;;;;;8.10;1.90;;;3.70;99.90;;;;;;5024748;28;20098;-80
2022/01/21 05:18:57;;;;;;;10.02;1.70;;;3.80;99.90;;;;;;5090496;28;20409;-80
2022/01/21 05:21:23;;;;;;;11.30;2.22;;;3.70;99.90;;;;;;5040257;28;20119;-80
2022/01/21 05:23:49;;;;;;;8.90;2.10;;;4.40;99.90;;;;;;5057583;28;20132;-80
2022/01/21 05:26:14;;;;;;;9.93;1.85;;;4.10;99.90;;;;;;5074517;28;20060;-80
2022/01/21 05:28:40;;;;;;;10.43;1.77;;;4.40;99.90;;;;;;5040320;28;20074;-80
2022/01/21 05:31:06;;;;;;;8.85;1.75;;;4.50;99.90;;;;;;5040437;28;20132;-80
2022/01/21 05:33:32;;;;;;;8.95;1.50;;;4.60;99.90;;;;;;5039972;28;20146;-79
2022/01/21 05:35:57;;;;;;;6.55;1.35;;;3.50;99.90;;;;;;5038196;28;20049;-79
2022/01/21 05:38:23;;;;;;;12.73;2.20;;;3.50;99.90;;;;;;5023751;28;20049;-80
2022/01/21 05:40:50;;;;;;;7.68;1.65;;;3.70;99.90;;;;;;5040873;28;20049;-80
2022/01/21 05:43:16;;;;;;;14.27;2.20;;;4.40;99.90;;;;;;5056997;28;20063;-80
2022/01/21 05:48:26;;;;;;;13.48;1.80;;;5.00;99.90;;;;;;5057937;28;20148;-80
2022/01/21 05:50:52;;;;;;;11.57;1.98;;;4.30;99.90;;;;;;5056097;28;20131;-80
2022/01/21 05:53:18;;;;;;;11.82;1.90;;;3.60;99.90;;;;;;5039224;28;20072;-80
2022/01/21 05:55:43;;;;;;;11.15;2.22;;;4.70;99.90;;;;;;5038833;28;20460;-80
2022/01/21 05:58:13;;;;;;;10.18;2.33;;;3.60;99.90;;;;;;5055872;28;20175;-80
2022/01/21 06:00:41;;;;;;;12.95;2.80;;;4.50;99.90;;;;;;5040792;28;20505;-80
2022/01/21 06:03:07;;;;;;;11.70;2.22;;;3.70;99.90;;;;;;5038466;28;20040;-80
2022/01/21 06:05:33;;;;;;;13.98;2.58;;;5.10;99.90;;;;;;5024490;28;20036;-80
2022/01/21 06:08:04;;;;;;;23.73;3.38;;;3.70;99.90;;;;;;5054761;28;20044;-80
2022/01/21 06:10:29;;;;;;;13.68;2.20;;;3.70;99.90;;;;;;5041219;28;20405;-80
2022/01/21 06:12:56;;;;;;;13.40;2.67;;;3.70;99.90;;;;;;5038797;28;20052;-80
2022/01/21 06:15:22;;;;;;;17.33;2.88;;;3.70;99.90;;;;;;5041312;28;20106;-80
2022/01/21 06:17:48;;;;;;;13.27;2.88;;;3.70;99.90;;;;;;5040116;28;20048;-81
2022/01/21 06:20:14;;;;;;;19.73;3.00;;;3.60;99.90;;;;;;5039928;28;20064;-79
2022/01/21 06:22:40;;;;;;;13.88;2.60;;;4.80;99.90;;;;;;5038485;28;20049;-80
2022/01/21 06:25:06;;;;;;;15.48;2.70;;;3.70;99.90;;;;;;5039787;28;20175;-80
2022/01/21 06:27:34;;;;;;;10.20;2.35;;;3.80;99.90;;;;;;5057501;28;20052;-80
2022/01/21 06:30:00;;;;;;;12.07;2.45;;;4.30;99.90;;;;;;5039780;28;20084;-80
2022/01/21 06:32:26;;;;;;;12.40;2.13;;;4.00;99.90;;;;;;5072929;28;20048;-80
2022/01/21 06:34:51;;;;;;;12.23;2.30;;;4.10;99.90;;;;;;5057118;28;20041;-81
2022/01/21 06:37:17;;;;;;;10.43;2.50;;;3.70;99.90;;;;;;5073332;28;20050;-80
2022/01/21 06:39:43;;;;;;;14.55;2.83;;;3.80;99.90;;;;;;5040558;28;20494;-80
2022/01/21 06:42:09;;;;;;;13.90;2.70;;;3.70;99.90;;;;;;5021091;28;20136;-81
2022/01/21 06:44:35;;;;;;;13.30;2.30;;;3.70;99.90;;;;;;5040614;28;20052;-80
2022/01/21 06:47:02;;;;;;;12.82;2.53;;;4.60;99.90;;;;;;5039981;28;20225;-80
2022/01/21 06:49:27;;;;;;;15.73;2.45;;;3.80;99.90;;;;;;5023710;28;20508;-80
2022/01/21 06:51:53;;;;;;;13.57;2.20;;;4.40;99.90;;;;;;5040684;28;20056;-80
2022/01/21 06:54:19;;;;;;;15.20;2.80;;;3.90;99.90;;;;;;5019435;28;20858;-80
2022/01/21 06:56:44;;;;;;;15.25;2.83;;;3.90;99.90;;;;;;5039475;28;20049;-80
2022/01/21 06:59:10;;;;;;;18.85;2.92;;;4.00;99.90;;;;;;5038845;28;20123;-80
2022/01/21 07:01:36;;;;;;;12.95;3.25;;;5.40;99.90;;;;;;5054892;28;20053;-80
2022/01/21 07:04:02;;;;;;;16.48;2.28;;;5.30;99.90;;;;;;5022465;28;20513;-80
2022/01/21 07:06:28;;;;;;;19.13;2.67;;;4.00;99.90;;;;;;5039176;28;20179;-80
2022/01/21 07:08:53;;;;;;;14.18;2.97;;;4.70;99.90;;;;;;5055864;28;20484;-81
2022/01/21 07:11:19;;;;;;;14.13;2.97;;;4.10;99.90;;;;;;5039983;28;20501;-80
2022/01/21 07:13:45;;;;;;;12.57;2.42;;;3.90;99.90;;;;;;5088948;28;20049;-80
2022/01/21 07:16:11;;;;;;;17.98;2.33;;;5.40;99.90;;;;;;5021232;28;20137;-79
2022/01/21 07:18:37;;;;;;;17.75;2.85;;;4.10;99.90;;;;;;5022822;28;20056;-81
2022/01/21 07:21:03;;;;;;;13.98;2.17;;;4.90;99.90;;;;;;5040759;28;20552;-80
2022/01/21 07:23:28;;;;;;;11.02;2.53;;;4.20;99.90;;;;;;5039505;28;20049;-80
2022/01/21 07:25:54;;;;;;;14.15;2.53;;;4.20;99.90;;;;;;5055002;28;20049;-81
2022/01/21 07:28:20;;;;;;;13.55;3.05;;;4.30;99.90;;;;;;5055393;28;20413;-79
2022/01/21 07:30:45;;;;;;;9.18;2.25;;;4.30;99.90;;;;;;5056346;28;20051;-80
2022/01/21 07:33:13;;;;;;;13.25;2.30;;;4.50;99.90;;;;;;5037464;28;20045;-80
2022/01/21 07:35:39;;;;;;;7.35;1.75;;;5.10;99.90;;;;;;5057155;28;20053;-80
2022/01/21 07:38:05;;;;;;;10.88;2.38;;;4.50;99.90;;;;;;5055125;28;20071;-80
2022/01/21 07:40:31;;;;;;;7.15;1.95;;;4.50;99.90;;;;;;5056195;28;20040;-80
2022/01/21 07:42:57;;;;;;;11.23;2.60;;;4.50;99.90;;;;;;5072060;28;20068;-81
2022/01/21 07:45:23;;;;;;;12.93;2.38;;;5.10;99.90;;;;;;5055738;28;20401;-80
2022/01/21 07:47:49;;;;;;;12.27;2.50;;;4.60;99.90;;;;;;5055998;28;20048;-80
2022/01/21 07:50:16;;;;;;;13.45;2.33;;;4.60;99.90;;;;;;5038498;28;20115;-80
2022/01/21 07:52:42;;;;;;;11.23;2.30;;;4.60;99.90;;;;;;5055345;28;20120;-80
2022/01/21 07:55:08;;;;;;;15.00;2.72;;;6.10;99.90;;;;;;5021601;28;20550;-80
2022/01/21 07:57:34;;;;;;;15.82;2.63;;;4.70;99.90;;;;;;5037812;28;20398;-80
2022/01/21 07:59:59;;;;;;;15.25;2.22;;;4.70;99.90;;;;;;5054359;28;20051;-80
2022/01/21 08:02:27;;;;;;;10.63;2.70;;;4.80;99.90;;;;;;5075991;28;20041;-80
2022/01/21 08:04:55;;;;;;;15.35;2.58;;;4.80;99.90;;;;;;5075701;28;20053;-80
2022/01/21 08:07:22;;;;;;;17.42;2.38;;;5.50;99.90;;;;;;5025656;28;20061;-81
2022/01/21 08:09:49;;;;;;;16.48;2.55;;;5.30;99.90;;;;;;5058036;28;20489;-80
2022/01/21 08:12:16;;;;;;;19.48;3.10;;;5.60;99.90;;;;;;5041128;28;20056;-80
2022/01/21 08:14:43;;;;;;;12.55;2.63;;;5.10;99.90;;;;;;5076221;28;20055;-81
2022/01/21 08:17:09;;;;;;;18.30;2.92;;;5.60;99.90;;;;;;5041888;28;20059;-80
2022/01/21 08:19:35;;;;;;;15.30;2.53;;;5.00;99.90;;;;;;5042203;28;20075;-80
2022/01/21 08:22:00;;;;;;;13.25;3.08;;;5.00;99.90;;;;;;5025073;28;20490;-81
2022/01/21 08:24:26;;;;;;;16.20;2.67;;;5.30;99.90;;;;;;5077312;28;20448;-80
2022/01/21 08:26:52;;;;;;;16.13;3.13;;;5.40;99.90;;;;;;5042526;28;20063;-80
2022/01/21 08:29:18;;;;;;;15.75;2.38;;;5.00;99.90;;;;;;5042683;28;20047;-80
2022/01/21 08:31:44;;;;;;;15.15;2.63;;;5.00;99.90;;;;;;5059769;28;20079;-80
2022/01/21 08:34:11;;;;;;;15.07;2.45;;;5.40;99.90;;;;;;5057161;28;20486;-80
2022/01/21 08:36:38;;;;;;;13.75;2.83;;;6.00;99.90;;;;;;5026566;28;20132;-80
2022/01/21 08:39:05;;;;;;;21.40;3.13;;;5.70;99.90;;;;;;5075560;28;20141;-80
2022/01/21 08:41:31;;;;;;;11.32;2.55;;;5.30;99.90;;;;;;5024279;28;20057;-81
2022/01/21 08:43:57;;;;;;;13.32;2.10;;;5.30;99.90;;;;;;5041963;28;20059;-80
2022/01/21 08:46:23;;;;;;;15.23;3.10;;;6.20;99.90;;;;;;5025905;28;20068;-80
2022/01/21 08:48:49;;;;;;;18.80;3.03;;;5.40;99.90;;;;;;5041899;28;20044;-80
2022/01/21 08:51:21;;;;;;;12.77;1.85;;;5.40;99.90;;;;;;5041580;28;20061;-80
2022/01/21 08:53:48;;;;;;;14.73;2.30;;;5.40;99.90;;;;;;5060101;28;20057;-80
2022/01/21 08:56:16;;;;;;;12.18;2.38;;;6.20;99.90;;;;;;5043448;28;20049;-80
2022/01/21 08:58:44;;;;;;;11.35;2.13;;;5.40;99.90;;;;;;5058681;28;20135;-80
2022/01/21 09:01:11;;;;;;;13.93;2.50;;;5.40;99.90;;;;;;5058639;28;20067;-80
2022/01/21 09:03:38;;;;;;;16.98;2.63;;;6.40;99.90;;;;;;5091843;28;20473;-80
2022/01/21 09:06:05;;;;;;;15.77;2.78;;;5.40;99.90;;;;;;5057681;28;20110;-81
2022/01/21 09:08:31;;;;;;;18.98;2.47;;;5.50;99.90;;;;;;5041877;28;20056;-80
2022/01/21 09:11:01;;;;;;;11.95;2.63;;;5.50;99.90;;;;;;5025302;28;20079;-81
2022/01/21 09:13:29;;;;;;;17.52;3.17;;;5.50;99.90;;;;;;5041305;28;20047;-80
2022/01/21 09:15:59;;;;;;;24.02;3.85;;;5.90;99.90;;;;;;5041245;28;20359;-80
2022/01/21 09:18:32;;;;;;;13.70;2.20;;;5.90;99.90;;;;;;5056988;28;20056;-80
2022/01/21 09:20:58;;;;;;;12.20;2.33;;;6.30;99.90;;;;;;5073611;28;20051;-80
2022/01/21 09:23:24;;;;;;;13.25;2.00;;;6.60;99.90;;;;;;5039501;28;20483;-80
2022/01/21 09:25:50;;;;;;;13.15;2.33;;;6.60;99.90;;;;;;5025649;28;20057;-80
2022/01/21 09:28:15;;;;;;;10.55;2.10;;;6.70;99.90;;;;;;5041328;28;20049;-81
2022/01/21 09:30:41;;;;;;;16.15;2.47;;;6.80;99.90;;;;;;5058202;28;20513;-80
2022/01/21 09:33:07;;;;;;;14.35;2.33;;;7.80;99.90;;;;;;5039555;28;20052;-81
2022/01/21 09:35:32;;;;;;;9.98;2.25;;;6.60;99.90;;;;;;5041643;28;20048;-80
2022/01/21 09:37:58;;;;;;;13.80;2.47;;;6.50;99.90;;;;;;5041624;28;20060;-80
2022/01/21 09:40:31;;;;;;;12.82;2.38;;;6.40;99.90;;;;;;5041157;28;20742;-80
2022/01/21 09:42:57;;;;;;;11.63;1.98;;;7.20;99.90;;;;;;5057865;28;20048;-80
2022/01/21 09:45:24;;;;;;;12.02;2.67;;;6.40;99.90;;;;;;5041391;28;20052;-80
2022/01/21 09:47:54;;;;;;;13.05;2.28;;;7.60;99.90;;;;;;5056552;28;20198;-80
2022/01/21 09:50:21;;;;;;;15.23;2.42;;;6.20;99.90;;;;;;5056221;28;20557;-80
2022/01/21 09:52:49;;;;;;;21.88;3.42;;;6.30;99.90;;;;;;5056176;28;20044;-81
2022/01/21 09:55:17;;;;;;;13.15;3.15;;;6.20;99.90;;;;;;5056890;28;20052;-81
2022/01/21 09:57:53;;;;;;;19.17;2.45;;;7.00;99.90;;;;;;5057205;28;20055;-81
2022/01/21 10:00:25;;;;;;;13.85;2.85;;;6.20;99.90;;;;;;5040755;28;20052;-81
2022/01/21 10:02:52;;;;;;;13.85;2.22;;;6.20;99.90;;;;;;5072868;28;20521;-81
2022/01/21 10:05:19;;;;;;;12.60;2.30;;;6.20;99.90;;;;;;5049123;28;20057;-80
2022/01/21 10:07:46;;;;;;;15.18;2.90;;;6.20;99.90;;;;;;5056173;28;20048;-80
2022/01/21 10:10:13;;;;;;;11.82;2.08;;;6.30;99.90;;;;;;5056653;28;20048;-81
2022/01/21 10:12:43;;;;;;;14.35;2.58;;;6.60;99.90;;;;;;5040505;28;20478;-81
2022/01/21 10:15:10;;;;;;;12.65;3.22;;;7.30;99.90;;;;;;5041468;28;20133;-81
2022/01/21 10:17:37;;;;;;;15.27;2.83;;;8.30;99.90;;;;;;5024717;28;20049;-80
2022/01/21 10:20:20;;;;;;;12.23;2.60;;;9.10;99.90;;;;;;5075141;28;20091;-81
2022/01/21 10:23:09;;;;;;;9.18;2.00;;;9.40;99.90;;;;;;5056472;28;20079;-81
2022/01/21 10:25:37;;;;;;;16.58;2.72;;;9.60;99.90;;;;;;5024526;28;20045;-80
2022/01/21 10:28:17;;;;;;;17.13;2.45;;;9.40;99.90;;;;;;5057564;28;20505;-80
2022/01/21 10:30:44;;;;;;;6.97;1.85;;;9.10;99.90;;;;;;5052259;28;20534;-81
2022/01/21 10:33:23;;;;;;;13.52;2.10;;;9.00;99.90;;;;;;5008035;28;20593;-82
2022/01/21 10:35:51;;;;;;;10.35;2.13;;;8.60;99.90;;;;;;5056922;28;20040;-81
2022/01/21 10:38:23;;;;;;;9.65;2.60;;;8.20;99.90;;;;;;5055299;28;20397;-81
2022/01/21 10:40:49;;;;;;;10.73;2.13;;;7.90;99.90;;;;;;5040316;28;20053;-81
2022/01/21 10:43:18;;;;;;;11.68;2.33;;;7.70;99.90;;;;;;5037495;28;20041;-81
2022/01/21 10:45:53;;;;;;;15.20;2.70;;;7.50;99.90;;;;;;5057434;28;20136;-80
2022/01/21 10:48:18;;;;;;;10.32;2.33;;;7.30;99.90;;;;;;5038844;28;20167;-81
2022/01/21 10:50:44;;;;;;;13.43;2.20;;;7.10;99.90;;;;;;5057961;28;20124;-82
2022/01/21 10:53:27;;;;;;;11.45;2.65;;;7.10;99.90;;;;;;5055528;28;20163;-81
2022/01/21 10:55:53;;;;;;;15.88;3.10;;;8.00;99.90;;;;;;5073332;28;20057;-78
2022/01/21 10:58:19;;;;;;;20.02;3.03;;;7.50;99.90;;;;;;5072029;28;20048;-80
2022/01/21 11:00:59;;;;;;;15.75;2.90;;;7.80;99.90;;;;;;5041152;28;20052;-81
2022/01/21 11:03:29;;;;;;;10.55;2.85;;;7.90;99.90;;;;;;5054836;28;20045;-80
2022/01/21 11:06:13;;;;;;;14.02;2.97;;;7.80;99.90;;;;;;5055800;28;20607;-80
2022/01/21 11:08:38;;;;;;;11.25;2.38;;;7.70;99.90;;;;;;5055320;28;20060;-81
2022/01/21 11:11:04;;;;;;;12.88;2.70;;;7.60;99.90;;;;;;5023878;28;20052;-80
2022/01/21 11:13:32;;;;;;;10.45;2.17;;;7.90;99.90;;;;;;5038775;28;20040;-80
2022/01/21 11:16:25;;;;;;;12.68;2.85;;;7.60;99.90;;;;;;5040177;28;20091;-80
2022/01/21 11:19:07;;;;;;;13.82;2.75;;;7.60;99.90;;;;;;5039168;28;20095;-80
2022/01/21 11:21:53;;;;;;;11.40;2.50;;;7.60;99.90;;;;;;5039725;28;20059;-80
2022/01/21 11:24:21;;;;;;;13.52;2.70;;;7.60;99.90;;;;;;5054317;28;20040;-80
2022/01/21 11:27:06;;;;;;;9.40;2.38;;;7.60;99.90;;;;;;5056936;28;20078;-80
2022/01/21 11:29:32;;;;;;;9.93;2.10;;;7.60;99.90;;;;;;5054146;28;20187;-80
2022/01/21 11:31:58;;;;;;;10.38;2.47;;;7.60;99.90;;;;;;5024370;28;20090;-80
2022/01/21 11:34:24;;;;;;;18.27;2.67;;;7.60;99.90;;;;;;5039385;28;20072;-80
2022/01/21 11:36:50;;;;;;;14.25;2.72;;;7.60;99.90;;;;;;5042420;28;20056;-82
2022/01/21 11:39:21;;;;;;;16.50;3.03;;;7.50;99.90;;;;;;5043826;28;20063;-82
2022/01/21 11:41:50;;;;;;;9.77;2.60;;;7.50;99.90;;;;;;5060162;28;20052;-82
2022/01/21 11:44:24;;;;;;;13.70;2.70;;;7.40;99.90;;;;;;5059445;28;20481;-82
2022/01/21 11:47:01;;;;;;;17.10;3.22;;;7.50;99.90;;;;;;5059922;28;20087;-82
2022/01/21 11:49:28;;;;;;;11.52;2.92;;;7.50;99.90;;;;;;5092259;28;20075;-82
2022/01/21 11:52:21;;;;;;;11.07;2.60;;;7.60;99.90;;;;;;5043240;28;20132;-82
2022/01/21 11:54:49;;;;;;;10.25;2.42;;;7.60;99.90;;;;;;5093235;28;20071;-82
2022/01/21 11:57:16;;;;;;;14.93;2.60;;;7.50;99.90;;;;;;5060535;28;20036;-83
2022/01/21 11:59:59;;;;;;;11.15;2.30;;;7.40;99.90;;;;;;5059389;28;20422;-80
2022/01/21 12:02:29;;;;;;;12.27;2.95;;;7.40;99.90;;;;;;5058014;28;20055;-80
2022/01/21 12:04:59;;;;;;;13.90;2.80;;;7.40;99.90;;;;;;5059098;28;20049;-80
2022/01/21 12:07:40;;;;;;;11.70;2.05;;;7.30;99.90;;;;;;5058160;28;20806;-80
2022/01/21 12:10:20;;;;;;;11.68;2.20;;;7.30;99.90;;;;;;5077654;28;20079;-80
2022/01/21 12:13:06;;;;;;;12.65;2.50;;;7.20;99.90;;;;;;5026666;28;20103;-81
2022/01/21 12:15:45;;;;;;;10.63;2.70;;;7.10;99.90;;;;;;5042695;28;20544;-80
2022/01/21 12:18:37;;;;;;;16.48;2.70;;;7.10;99.90;;;;;;5075501;28;20879;-80
2022/01/21 12:21:32;;;;;;;10.88;2.50;;;7.10;99.90;;;;;;5092178;28;20049;-80
2022/01/21 12:23:59;;;;;;;12.27;2.00;;;7.00;99.90;;;;;;5043635;28;20091;-80
2022/01/21 12:26:29;;;;;;;11.10;2.42;;;6.90;99.90;;;;;;5040970;28;20053;-80
2022/01/21 12:28:57;;;;;;;13.25;2.47;;;6.90;99.90;;;;;;5059572;28;20052;-80
2022/01/21 12:31:50;;;;;;;11.15;2.17;;;6.90;99.90;;;;;;5025567;28;20167;-80
2022/01/21 12:34:16;;;;;;;13.32;2.60;;;6.10;99.90;;;;;;5058953;28;20457;-81
2022/01/21 12:36:53;;;;;;;14.18;2.47;;;6.90;99.90;;;;;;5026782;28;20044;-80
2022/01/21 12:39:45;;;;;;;16.15;2.53;;;6.80;99.90;;;;;;5040629;28;20052;-81
2022/01/21 12:42:24;;;;;;;13.88;2.38;;;6.70;99.90;;;;;;5075125;28;20135;-80
2022/01/21 12:44:52;;;;;;;9.55;2.22;;;6.70;99.90;;;;;;5059562;28;20056;-81
2022/01/21 12:47:43;;;;;;;13.75;3.10;;;6.70;99.90;;;;;;5056757;28;20110;-80
2022/01/21 12:50:34;;;;;;;13.45;2.67;;;6.70;99.90;;;;;;5059348;28;20101;-80
2022/01/21 12:58:26;;;;;;;16.83;3.00;;;6.70;99.90;;;;;;5089223;28;20040;-81
2022/01/21 13:01:03;;;;;;;13.68;2.90;;;6.80;99.90;;;;;;5059544;28;20071;-80
2022/01/21 13:03:44;;;;;;;13.80;2.65;;;6.70;99.90;;;;;;5031313;28;20521;-81
2022/01/21 13:06:26;;;;;;;12.07;2.53;;;6.70;99.90;;;;;;5057994;28;20125;-81
2022/01/21 13:08:52;;;;;;;16.73;2.85;;;6.60;99.90;;;;;;5059142;28;20052;-81
2022/01/21 13:11:24;;;;;;;16.20;2.80;;;6.60;99.90;;;;;;5040496;28;20147;-81
2022/01/21 13:14:12;;;;;;;13.63;2.53;;;6.70;99.90;;;;;;5041312;28;20049;-81
2022/01/21 13:16:40;;;;;;;19.70;2.92;;;6.70;99.90;;;;;;5075165;28;20102;-80
2022/01/21 13:19:06;;;;;;;16.92;3.03;;;6.70;99.90;;;;;;5041303;28;20124;-80
2022/01/21 13:21:34;;;;;;;16.52;2.95;;;6.70;99.90;;;;;;5025696;28;20048;-80
2022/01/21 13:24:02;;;;;;;15.48;2.97;;;5.90;99.90;;;;;;5041666;28;20060;-80
2022/01/21 13:26:39;;;;;;;13.48;2.60;;;6.80;99.90;;;;;;5075769;28;20052;-81
2022/01/21 13:29:13;;;;;;;15.80;2.60;;;6.80;99.90;;;;;;5056677;28;20106;-81
2022/01/21 13:31:48;;;;;;;18.55;3.13;;;6.80;99.90;;;;;;5058845;28;20083;-81
2022/01/21 13:34:35;;;;;;;23.17;3.55;;;6.90;99.90;;;;;;5023395;28;20041;-81
2022/01/21 13:37:01;;;;;;;;;;;6.90;99.90;;;;;;5058278;28;20048;-81
2022/01/21 13:39:40;;;;;;;15.75;2.65;;;6.90;99.90;;;;;;5074067;28;19927;-81
2022/01/21 13:42:07;;;;;;;15.75;2.45;;;6.90;99.90;;;;;;5054297;28;20146;-81
2022/01/21 13:44:33;;;;;;;10.07;2.53;;;6.90;99.90;;;;;;5057469;28;20044;-80
2022/01/21 13:47:01;;;;;;;14.70;2.75;;;6.90;99.90;;;;;;5056354;28;20055;-80
2022/01/21 13:49:27;;;;;;;12.48;2.53;;;6.90;99.90;;;;;;5089621;28;20044;-80
2022/01/21 13:51:58;;;;;;;10.75;2.60;;;6.90;99.90;;;;;;5039393;28;20391;-80
2022/01/21 13:54:44;;;;;;;16.88;3.55;;;6.90;99.90;;;;;;5040019;28;20061;-80
2022/01/21 13:57:11;;;;;;;12.40;2.77;;;6.90;99.90;;;;;;5025511;28;20049;-81
2022/01/21 13:59:44;;;;;;;15.57;2.75;;;7.00;99.90;;;;;;5057303;28;20063;-81
2022/01/21 14:02:16;;;;;;;13.35;2.60;;;6.90;99.90;;;;;;5089766;28;20132;-81